createdAt,value
2019-04-07T00:00:01.935Z,100.00
2019-04-07T00:02:32.435Z,100.00
2019-04-07T00:05:11.123Z,100.00
2019-04-07T00:07:38.016Z,100.00
2019-04-07T00:10:11.176Z,100.00
2019-04-07T00:12:55.748Z,100.00
2019-04-07T00:15:27.766Z,100.00
2019-04-07T00:18:01.372Z,100.00
2019-04-07T00:20:32.119Z,100.00
2019-04-07T00:23:03.332Z,100.00
2019-04-07T00:25:33.707Z,100.00
2019-04-07T00:28:04.095Z,100.00
2019-04-07T00:30:37.495Z,100.00
2019-04-07T00:33:23.107Z,100.00
2019-04-07T00:35:55.915Z,100.00
2019-04-07T00:38:28.356Z,100.00
2019-04-07T00:41:03.095Z,100.00
2019-04-07T00:43:34.367Z,100.00
2019-04-07T00:46:05.643Z,100.00
2019-04-07T00:48:39.869Z,100.00
2019-04-07T00:51:13.060Z,100.00
2019-04-07T00:53:45.707Z,100.00
2019-04-07T00:56:24.702Z,100.00
2019-04-07T00:59:09.976Z,100.00
2019-04-07T01:01:47.229Z,100.00
2019-04-07T01:04:19.887Z,100.00
2019-04-07T01:06:51.731Z,100.00
2019-04-07T01:09:25.307Z,100.00
2019-04-07T01:11:59.539Z,100.00
2019-04-07T01:14:30.558Z,100.00
2019-04-07T01:17:03.682Z,100.00
2019-04-07T01:19:36.564Z,100.00
2019-04-07T01:22:41.060Z,100.00
2019-04-07T01:28:31.685Z,100.00
2019-04-07T01:31:03.454Z,100.00
2019-04-07T01:34:01.198Z,100.00
2019-04-07T01:36:38.234Z,100.00
2019-04-07T01:39:22.996Z,100.00
2019-04-07T01:42:02.619Z,100.00
2019-04-07T01:44:44.644Z,100.00
2019-04-07T01:47:30.524Z,100.00
2019-04-07T01:50:19.841Z,100.00
2019-04-07T01:53:03.496Z,100.00
2019-04-07T01:55:58.927Z,100.00
2019-04-07T01:58:52.430Z,100.00
2019-04-07T02:01:40.085Z,100.00
2019-04-07T02:04:32.468Z,100.00
2019-04-07T02:07:24.614Z,100.00
2019-04-07T02:10:25.268Z,100.00
2019-04-07T02:13:18.768Z,100.00
2019-04-07T02:16:11.444Z,100.00
2019-04-07T02:19:21.896Z,100.00
2019-04-07T02:22:17.366Z,100.00
2019-04-07T02:25:21.971Z,100.00
2019-04-07T02:28:16.480Z,100.00
2019-04-07T02:31:19.696Z,100.00
2019-04-07T02:34:00.126Z,100.00
2019-04-07T02:36:53.932Z,100.00
2019-04-07T02:40:00.247Z,100.00
2019-04-07T02:42:43.748Z,100.00
2019-04-07T02:45:36.811Z,100.00
2019-04-07T02:48:29.336Z,100.00
2019-04-07T02:51:11.241Z,100.00
2019-04-07T02:53:50.963Z,100.00
2019-04-07T02:56:46.193Z,100.00
2019-04-07T02:59:29.341Z,100.00
2019-04-07T03:02:34.679Z,100.00
2019-04-07T03:05:17.252Z,100.00
2019-04-07T03:08:09.155Z,100.00
2019-04-07T03:11:16.054Z,100.00
2019-04-07T03:13:54.955Z,100.00
2019-04-07T03:16:52.815Z,100.00
2019-04-07T03:19:30.576Z,100.00
2019-04-07T03:22:23.733Z,100.00
2019-04-07T03:25:16.184Z,100.00
2019-04-07T03:28:02.183Z,100.00
2019-04-07T03:30:42.362Z,100.00
2019-04-07T03:33:28.393Z,100.00
2019-04-07T03:36:18.593Z,100.00
2019-04-07T03:38:57.895Z,100.00
2019-04-07T03:41:39.985Z,100.00
2019-04-07T03:44:29.144Z,100.00
2019-04-07T03:47:17.116Z,100.00
2019-04-07T03:50:07.188Z,100.00
2019-04-07T03:52:56.579Z,100.00
2019-04-07T03:55:47.239Z,100.00
2019-04-07T03:58:25.812Z,100.00
2019-04-07T04:01:35.389Z,100.00
2019-04-07T04:04:41.429Z,100.00
2019-04-07T04:07:34.927Z,100.00
2019-04-07T04:10:06.974Z,100.00
2019-04-07T04:13:02.992Z,100.00
2019-04-07T04:15:46.907Z,100.00
2019-04-07T04:18:16.780Z,100.00
2019-04-07T04:20:46.557Z,100.00
2019-04-07T04:23:17.821Z,100.00
2019-04-07T04:25:47.628Z,100.00
2019-04-07T04:28:17.084Z,100.00
2019-04-07T04:30:46.650Z,100.00
2019-04-07T04:33:16.126Z,100.00
2019-04-07T04:35:46.644Z,100.00
2019-04-07T04:38:16.581Z,100.00
2019-04-07T04:40:46.009Z,100.00
2019-04-07T04:43:15.696Z,100.00
2019-04-07T04:45:46.044Z,100.00
2019-04-07T04:48:15.643Z,100.00
2019-04-07T04:50:45.787Z,100.00
2019-04-07T04:53:15.361Z,100.00
2019-04-07T04:55:44.696Z,100.00
2019-04-07T04:58:14.060Z,100.00
2019-04-07T05:00:43.458Z,100.00
2019-04-07T05:03:12.852Z,100.00
2019-04-07T05:05:42.299Z,100.00
2019-04-07T05:08:12.770Z,100.00
2019-04-07T05:10:42.741Z,100.00
2019-04-07T05:13:12.145Z,100.00
2019-04-07T05:15:42.100Z,100.00
2019-04-07T05:18:12.032Z,100.00
2019-04-07T05:20:42.045Z,100.00
2019-04-07T05:23:12.157Z,100.00
2019-04-07T05:25:41.592Z,100.00
2019-04-07T05:28:11.315Z,100.00
2019-04-07T05:30:41.452Z,100.00
2019-04-07T05:33:11.102Z,100.00
2019-04-07T05:35:40.623Z,100.00
2019-04-07T05:38:11.312Z,100.00
2019-04-07T05:40:41.011Z,100.00
2019-04-07T05:43:10.715Z,100.00
2019-04-07T05:45:41.056Z,100.00
2019-04-07T05:48:10.755Z,100.00
2019-04-07T05:50:40.709Z,100.00
2019-04-07T05:53:14.600Z,100.00
2019-04-07T05:55:42.617Z,100.00
2019-04-07T05:58:14.807Z,100.00
2019-04-07T06:00:45.732Z,100.00
2019-04-07T06:03:15.389Z,100.00
2019-04-07T06:05:48.295Z,100.00
2019-04-07T06:08:25.731Z,100.00
2019-04-07T06:10:48.811Z,100.00
2019-04-07T06:13:18.953Z,100.00
2019-04-07T06:15:51.377Z,100.00
2019-04-07T06:18:21.220Z,100.00
2019-04-07T06:20:52.011Z,100.00
2019-04-07T06:23:23.313Z,100.00
2019-04-07T06:25:55.586Z,100.00
2019-04-07T06:28:24.952Z,100.00
2019-04-07T06:30:54.381Z,100.00
2019-04-07T06:33:23.900Z,100.00
2019-04-07T06:35:55.089Z,100.00
2019-04-07T06:38:33.120Z,100.00
2019-04-07T06:41:03.103Z,100.00
2019-04-07T06:43:35.145Z,100.00
2019-04-07T06:46:27.676Z,100.00
2019-04-07T06:49:15.998Z,100.00
2019-04-07T06:52:07.361Z,100.00
2019-04-07T06:54:57.609Z,100.00
2019-04-07T06:57:50.696Z,100.00
2019-04-07T07:00:38.888Z,100.00
2019-04-07T07:03:33.523Z,100.00
2019-04-07T07:06:20.552Z,100.00
2019-04-07T07:09:00.857Z,100.00
2019-04-07T07:12:01.639Z,100.00
2019-04-07T07:14:55.102Z,100.00
2019-04-07T07:17:38.516Z,100.00
2019-04-07T07:20:17.674Z,100.00
2019-04-07T07:22:51.171Z,100.00
2019-04-07T07:25:20.701Z,100.00
2019-04-07T07:27:51.152Z,100.00
2019-04-07T07:30:21.374Z,100.00
2019-04-07T07:32:52.918Z,100.00
2019-04-07T07:35:22.412Z,100.00
2019-04-07T07:37:58.130Z,100.00
2019-04-07T07:40:26.481Z,100.00
2019-04-07T07:42:58.102Z,100.00
2019-04-07T07:45:27.420Z,100.00
2019-04-07T07:47:57.852Z,100.00
2019-04-07T07:50:28.350Z,100.00
2019-04-07T07:52:58.291Z,100.00
2019-04-07T07:55:33.726Z,100.00
2019-04-07T07:58:01.039Z,100.00
2019-04-07T08:00:30.968Z,100.00
2019-04-07T08:03:00.575Z,100.00
2019-04-07T08:05:33.385Z,100.00
2019-04-07T08:08:01.748Z,100.00
2019-04-07T08:10:31.288Z,100.00
2019-04-07T08:13:05.084Z,100.00
2019-04-07T08:15:33.381Z,100.00
2019-04-07T08:18:07.180Z,100.00
2019-04-07T08:20:42.933Z,100.00
2019-04-07T08:23:13.339Z,97.95
2019-04-07T08:25:43.740Z,99.58
2019-04-07T08:28:13.574Z,98.24
2019-04-07T08:30:47.200Z,94.97
2019-04-07T08:33:14.723Z,96.60
2019-04-07T08:35:45.909Z,95.10
2019-04-07T08:38:18.637Z,91.50
2019-04-07T08:40:46.917Z,92.64
2019-04-07T08:43:21.423Z,87.61
2019-04-07T08:45:50.325Z,87.56
2019-04-07T08:48:21.529Z,86.24
2019-04-07T08:50:59.835Z,84.75
2019-04-07T08:53:29.503Z,83.65
2019-04-07T08:55:59.947Z,76.96
2019-04-07T08:58:47.819Z,79.17
2019-04-07T09:01:20.314Z,78.34
2019-04-07T09:03:50.750Z,77.05
2019-04-07T09:15:04.007Z,72.42
2019-04-07T10:43:31.907Z,50.88
2019-04-07T10:58:50.281Z,49.87
2019-04-07T11:01:49.127Z,49.91
2019-04-07T11:04:47.369Z,51.87
2019-04-07T11:11:31.462Z,51.13
2019-04-07T11:17:54.468Z,49.23
2019-04-07T11:20:55.772Z,50.30
2019-04-07T11:27:37.642Z,50.02
2019-04-07T11:30:55.452Z,47.94
2019-04-07T11:34:22.681Z,49.09
2019-04-07T11:37:30.880Z,47.47
2019-04-07T11:40:42.046Z,46.26
2019-04-07T11:43:58.643Z,46.56
2019-04-07T11:50:02.400Z,46.19
2019-04-07T12:01:12.811Z,44.13
2019-04-07T12:04:37.939Z,42.66
2019-04-07T12:07:29.173Z,42.95
2019-04-07T12:10:33.208Z,42.75
2019-04-07T12:13:16.534Z,43.70
2019-04-07T12:16:27.723Z,43.19
2019-04-07T12:19:39.749Z,43.51
2019-04-07T12:25:48.583Z,45.81
2019-04-07T12:29:05.896Z,46.35
2019-04-07T12:31:57.758Z,44.84
2019-04-07T12:34:53.539Z,43.93
2019-04-07T12:37:43.742Z,42.94
2019-04-07T12:49:56.282Z,38.80
2019-04-07T12:53:32.133Z,41.32
2019-04-07T12:59:41.156Z,42.34
2019-04-07T13:02:53.236Z,41.30
2019-04-07T13:09:37.998Z,42.80
2019-04-07T13:41:59.042Z,39.30
2019-04-07T13:45:19.212Z,39.33
2019-04-07T13:48:18.392Z,37.05
2019-04-07T14:16:04.033Z,35.22
2019-04-07T16:48:58.467Z,42.12
2019-04-07T16:51:58.363Z,43.49
2019-04-07T16:54:52.731Z,43.66
2019-04-07T16:57:54.842Z,45.48
2019-04-07T17:04:00.864Z,48.02
2019-04-07T17:06:37.738Z,48.91
2019-04-07T17:09:25.038Z,49.77
2019-04-07T17:12:00.370Z,49.81
2019-04-07T17:14:35.980Z,50.17
2019-04-07T17:17:06.734Z,51.77
2019-04-07T17:19:37.288Z,52.70
2019-04-07T17:22:11.875Z,53.96
2019-04-07T17:24:42.693Z,54.37
2019-04-07T17:27:13.093Z,54.50
2019-04-07T17:29:44.448Z,54.60
2019-04-07T17:32:15.143Z,54.87
2019-04-07T17:34:45.352Z,54.96
2019-04-07T17:37:15.163Z,54.82
2019-04-07T17:40:00.221Z,54.67
2019-04-07T17:42:30.333Z,54.82
2019-04-07T17:45:21.308Z,55.67
2019-04-07T17:48:09.836Z,55.91
2019-04-07T17:50:48.710Z,56.35
2019-04-07T17:53:28.516Z,56.87
2019-04-07T17:56:29.705Z,58.81
2019-04-07T17:59:31.073Z,59.02
2019-04-07T18:02:11.911Z,59.55
2019-04-07T18:05:10.618Z,60.71
2019-04-07T18:08:02.941Z,60.95
2019-04-07T18:10:57.985Z,61.86
2019-04-07T18:13:49.957Z,62.50
2019-04-07T18:16:44.747Z,62.77
2019-04-07T18:19:43.126Z,63.22
2019-04-07T18:22:24.830Z,64.01
2019-04-07T18:25:17.320Z,64.27
2019-04-07T18:28:06.843Z,64.67
2019-04-07T18:31:04.394Z,65.09
2019-04-07T18:33:52.602Z,65.58
2019-04-07T18:36:47.118Z,65.91
2019-04-07T18:39:41.914Z,66.19
2019-04-07T18:42:36.642Z,66.58
2019-04-07T18:45:19.353Z,66.93
2019-04-07T18:48:11.342Z,67.41
2019-04-07T18:51:03.116Z,67.93
2019-04-07T18:53:48.912Z,68.36
2019-04-07T18:56:38.615Z,68.80
2019-04-07T18:59:21.531Z,69.24
2019-04-07T19:02:19.486Z,69.75
2019-04-07T19:05:00.806Z,70.09
2019-04-07T19:07:37.945Z,70.46
2019-04-07T19:10:39.062Z,70.78
2019-04-07T19:13:36.932Z,71.11
2019-04-07T19:16:28.478Z,71.50
2019-04-07T19:19:15.222Z,71.66
2019-04-07T19:22:10.948Z,71.80
2019-04-07T19:25:04.223Z,71.91
2019-04-07T19:27:48.339Z,72.08
2019-04-07T19:30:45.353Z,72.26
2019-04-07T19:33:35.619Z,72.50
2019-04-07T19:36:23.999Z,72.78
2019-04-07T19:39:09.050Z,72.90
2019-04-07T19:41:56.380Z,72.97
2019-04-07T19:44:53.083Z,73.07
2019-04-07T19:47:39.756Z,73.14
2019-04-07T19:50:28.570Z,73.27
2019-04-07T19:53:20.400Z,73.51
2019-04-07T19:56:25.256Z,73.71
2019-04-07T19:59:12.851Z,73.99
2019-04-07T20:02:10.464Z,74.28
2019-04-07T20:04:55.078Z,74.49
2019-04-07T20:07:52.739Z,74.85
2019-04-07T20:10:30.460Z,75.16
2019-04-07T20:13:22.063Z,75.53
2019-04-07T20:16:00.476Z,75.73
2019-04-07T20:18:58.591Z,76.01
2019-04-07T20:21:49.379Z,76.27
2019-04-07T20:24:36.689Z,76.43
2019-04-07T20:27:13.640Z,76.70
2019-04-07T20:30:02.976Z,76.88
2019-04-07T20:32:40.167Z,77.08
2019-04-07T20:35:28.587Z,77.16
2019-04-07T20:38:19.213Z,77.28
2019-04-07T20:41:13.613Z,77.48
2019-04-07T20:43:51.287Z,77.69
2019-04-07T20:46:47.444Z,77.84
2019-04-07T20:49:35.718Z,78.05
2019-04-07T20:52:34.222Z,78.29
2019-04-07T20:55:15.592Z,78.54
2019-04-07T20:58:15.198Z,78.77
2019-04-07T21:01:00.701Z,79.08
2019-04-07T21:03:47.652Z,79.16
2019-04-07T21:06:38.058Z,79.28
2019-04-07T21:09:33.345Z,79.32
2019-04-07T21:12:08.157Z,79.44
2019-04-07T21:15:16.919Z,79.60
2019-04-07T21:17:39.654Z,79.73
2019-04-07T21:20:20.084Z,79.84
2019-04-07T21:23:17.136Z,80.04
2019-04-07T21:25:56.024Z,80.17
2019-04-07T21:28:39.026Z,80.25
2019-04-07T21:31:26.154Z,80.27
2019-04-07T21:34:30.787Z,80.29
2019-04-07T21:37:23.039Z,80.32
2019-04-07T21:40:10.346Z,80.42
2019-04-07T21:43:17.953Z,80.47
2019-04-07T21:46:07.945Z,80.40
2019-04-07T21:48:57.975Z,80.36
2019-04-07T21:51:49.842Z,80.35
2019-04-07T21:54:39.119Z,80.35
2019-04-07T21:57:30.201Z,80.43
2019-04-07T22:00:21.574Z,80.37
2019-04-07T22:03:08.788Z,80.34
2019-04-07T22:05:49.016Z,80.40
2019-04-07T22:08:27.091Z,80.41
2019-04-07T22:10:57.364Z,80.41
2019-04-07T22:13:28.527Z,80.29
2019-04-07T22:16:01.690Z,80.08
2019-04-07T22:18:29.651Z,79.91
2019-04-07T22:20:59.243Z,79.77
2019-04-07T22:23:30.703Z,79.71
2019-04-07T22:26:00.058Z,79.71
2019-04-07T22:28:30.312Z,79.72
2019-04-07T22:31:01.501Z,79.78
2019-04-07T22:33:32.537Z,79.83
2019-04-07T22:36:02.343Z,79.86
2019-04-07T22:38:31.798Z,79.93
2019-04-07T22:41:02.703Z,79.97
2019-04-07T22:43:32.382Z,80.07
2019-04-07T22:46:09.349Z,80.18
2019-04-07T22:48:33.089Z,80.30
2019-04-07T22:51:04.256Z,80.43
2019-04-07T22:53:35.002Z,80.57
2019-04-07T22:56:07.811Z,80.73
2019-04-07T22:58:36.175Z,80.77
2019-04-07T23:01:05.698Z,80.82
2019-04-07T23:03:35.299Z,80.91
2019-04-07T23:06:05.192Z,80.93
2019-04-07T23:08:35.079Z,80.97
2019-04-07T23:11:06.431Z,81.00
2019-04-07T23:13:37.480Z,81.06
2019-04-07T23:16:12.819Z,81.12
2019-04-07T23:18:38.553Z,81.26
2019-04-07T23:21:08.100Z,81.41
2019-04-07T23:23:38.252Z,81.70
2019-04-07T23:26:07.959Z,81.94
2019-04-07T23:28:37.328Z,82.10
2019-04-07T23:31:07.517Z,82.26
2019-04-07T23:33:38.259Z,82.45
2019-04-07T23:36:09.450Z,82.69
2019-04-07T23:38:39.125Z,82.88
2019-04-07T23:41:09.555Z,82.97
2019-04-07T23:43:39.883Z,83.12
2019-04-07T23:46:19.827Z,83.31
2019-04-07T23:48:41.008Z,83.58
2019-04-07T23:51:10.528Z,83.79
2019-04-07T23:54:08.858Z,83.94
2019-04-07T23:56:39.517Z,84.13
2019-04-07T23:59:10.220Z,84.40
